createdAt,value
2018-07-01T00:01:45.129Z,22.10
2018-07-01T00:04:13.775Z,22.10
2018-07-01T00:06:42.328Z,22.00
2018-07-01T00:09:10.989Z,22.00
2018-07-01T00:11:53.943Z,22.00
2018-07-01T00:14:22.598Z,22.00
2018-07-01T00:16:51.163Z,22.00
2018-07-01T00:19:19.947Z,22.00
2018-07-01T00:21:48.524Z,22.00
2018-07-01T00:24:17.123Z,21.90
2018-07-01T00:26:45.749Z,22.00
2018-07-01T00:29:14.315Z,22.00
2018-07-01T00:31:42.969Z,21.90
2018-07-01T00:34:11.551Z,21.90
2018-07-01T00:36:40.167Z,21.90
2018-07-01T00:39:11.190Z,21.90
2018-07-01T00:41:39.786Z,21.90
2018-07-01T00:44:08.650Z,21.90
2018-07-01T00:46:38.009Z,21.90
2018-07-01T00:49:11.834Z,21.90
2018-07-01T00:51:40.415Z,22.00
2018-07-01T00:54:09.024Z,21.90
2018-07-01T00:56:37.628Z,21.90
2018-07-01T00:59:06.513Z,21.90
2018-07-01T01:01:35.207Z,21.90
2018-07-01T01:04:03.851Z,21.90
2018-07-01T01:06:32.454Z,21.90
2018-07-01T01:09:01.027Z,21.80
2018-07-01T01:11:29.833Z,21.60
2018-07-01T01:13:58.444Z,21.50
2018-07-01T01:16:27.035Z,21.50
2018-07-01T01:18:55.666Z,21.40
2018-07-01T01:21:24.287Z,21.50
2018-07-01T01:23:52.893Z,21.50
2018-07-01T01:26:21.426Z,21.50
2018-07-01T01:28:50.226Z,21.50
2018-07-01T01:31:18.906Z,21.50
2018-07-01T01:33:47.500Z,21.50
2018-07-01T01:36:16.255Z,21.50
2018-07-01T01:38:45.724Z,21.50
2018-07-01T01:41:23.062Z,21.50
2018-07-01T01:43:55.143Z,21.40
2018-07-01T01:46:29.362Z,21.30
2018-07-01T01:49:01.895Z,21.30
2018-07-01T01:51:35.986Z,21.20
2018-07-01T01:54:15.940Z,21.20
2018-07-01T01:56:49.354Z,21.10
2018-07-01T01:59:23.212Z,21.10
2018-07-01T02:01:57.146Z,21.10
2018-07-01T02:04:30.331Z,21.00
2018-07-01T02:07:02.155Z,21.00
2018-07-01T02:09:33.086Z,21.00
2018-07-01T02:12:02.863Z,21.00
2018-07-01T02:16:40.859Z,20.80
2018-07-01T02:19:09.498Z,20.70
2018-07-01T02:21:38.119Z,20.70
2018-07-01T02:24:11.159Z,20.70
2018-07-01T02:26:39.861Z,20.70
2018-07-01T02:29:08.677Z,20.70
2018-07-01T02:31:37.294Z,20.60
2018-07-01T02:34:05.987Z,20.60
2018-07-01T02:36:34.606Z,20.60
2018-07-01T02:39:09.224Z,20.50
2018-07-01T02:41:38.059Z,20.50
2018-07-01T02:44:06.736Z,20.40
2018-07-01T02:46:35.311Z,20.40
2018-07-01T02:49:04.094Z,20.30
2018-07-01T02:51:32.744Z,20.30
2018-07-01T02:54:01.338Z,20.20
2018-07-01T02:56:29.999Z,20.20
2018-07-01T02:58:58.638Z,20.10
2018-07-01T03:01:27.222Z,19.90
2018-07-01T03:03:55.771Z,19.90
2018-07-01T03:06:24.363Z,19.90
2018-07-01T03:08:53.117Z,19.90
2018-07-01T03:11:21.694Z,19.90
2018-07-01T03:13:50.267Z,19.90
2018-07-01T03:16:18.910Z,19.80
2018-07-01T03:18:47.584Z,19.70
2018-07-01T03:21:16.178Z,19.70
2018-07-01T03:23:44.813Z,19.70
2018-07-01T03:26:13.506Z,19.70
2018-07-01T03:28:42.329Z,19.70
2018-07-01T03:31:10.930Z,19.60
2018-07-01T03:33:39.562Z,19.60
2018-07-01T03:36:08.186Z,19.50
2018-07-01T03:38:37.059Z,19.40
2018-07-01T03:41:05.678Z,19.40
2018-07-01T03:43:34.270Z,19.40
2018-07-01T03:46:03.046Z,19.40
2018-07-01T03:48:31.782Z,19.50
2018-07-01T03:51:00.298Z,19.40
2018-07-01T03:53:28.919Z,19.30
2018-07-01T03:55:57.541Z,19.30
2018-07-01T03:58:26.176Z,19.30
2018-07-01T04:00:54.789Z,19.30
2018-07-01T04:03:23.414Z,19.30
2018-07-01T04:05:52.058Z,19.30
2018-07-01T04:08:25.855Z,19.30
2018-07-01T04:10:54.812Z,19.30
2018-07-01T04:13:23.326Z,19.30
2018-07-01T04:15:51.836Z,19.30
2018-07-01T04:18:20.667Z,19.30
2018-07-01T04:20:49.206Z,19.30
2018-07-01T04:23:17.867Z,19.40
2018-07-01T04:25:46.453Z,19.30
2018-07-01T04:28:15.020Z,19.30
2018-07-01T04:30:43.570Z,19.20
2018-07-01T04:33:12.126Z,19.00
2018-07-01T04:35:40.775Z,18.90
2018-07-01T04:38:09.459Z,18.90
2018-07-01T04:40:38.053Z,19.00
2018-07-01T04:43:06.717Z,19.00
2018-07-01T04:45:35.328Z,19.00
2018-07-01T04:48:04.003Z,19.00
2018-07-01T04:50:32.623Z,19.00
2018-07-01T04:53:01.198Z,19.10
2018-07-01T04:55:29.771Z,19.00
2018-07-01T04:57:58.309Z,19.00
2018-07-01T05:00:27.050Z,19.00
2018-07-01T05:02:55.615Z,19.10
2018-07-01T05:05:24.166Z,19.20
2018-07-01T05:07:52.753Z,19.20
2018-07-01T05:10:21.455Z,19.20
2018-07-01T05:12:50.090Z,19.30
2018-07-01T05:15:18.726Z,19.30
2018-07-01T05:17:47.266Z,19.30
2018-07-01T05:20:15.799Z,19.30
2018-07-01T05:22:44.431Z,19.20
2018-07-01T05:25:13.058Z,19.10
2018-07-01T05:27:41.717Z,19.00
2018-07-01T05:30:10.262Z,18.90
2018-07-01T05:32:38.942Z,18.90
2018-07-01T05:35:07.544Z,19.00
2018-07-01T05:37:36.218Z,19.00
2018-07-01T05:40:05.166Z,19.00
2018-07-01T05:42:33.771Z,19.10
2018-07-01T05:45:02.351Z,19.10
2018-07-01T05:47:30.954Z,19.10
2018-07-01T05:49:59.906Z,19.00
2018-07-01T05:52:28.539Z,18.90
2018-07-01T05:54:57.101Z,19.00
2018-07-01T05:57:25.717Z,19.00
2018-07-01T05:59:54.513Z,19.10
2018-07-01T06:02:23.129Z,19.00
2018-07-01T06:04:51.753Z,19.00
2018-07-01T06:07:20.469Z,19.00
2018-07-01T06:09:49.291Z,19.00
2018-07-01T06:12:17.874Z,19.10
2018-07-01T06:14:46.559Z,19.10
2018-07-01T06:17:15.232Z,19.00
2018-07-01T06:19:43.897Z,19.00
2018-07-01T06:22:12.488Z,19.10
2018-07-01T06:24:41.104Z,19.10
2018-07-01T06:27:09.728Z,19.20
2018-07-01T06:29:38.388Z,19.20
2018-07-01T06:32:07.045Z,19.20
2018-07-01T06:34:35.660Z,19.00
2018-07-01T06:37:04.255Z,18.90
2018-07-01T06:39:38.096Z,19.00
2018-07-01T06:42:06.763Z,19.10
2018-07-01T06:44:35.375Z,19.20
2018-07-01T06:47:03.935Z,19.20
2018-07-01T06:49:32.724Z,19.20
2018-07-01T06:52:01.231Z,19.20
2018-07-01T06:54:29.823Z,19.10
2018-07-01T06:56:58.451Z,19.10
2018-07-01T06:59:27.062Z,19.10
2018-07-01T07:01:55.677Z,19.20
2018-07-01T07:04:24.251Z,19.20
2018-07-01T07:06:52.899Z,19.20
2018-07-01T07:09:21.502Z,19.30
2018-07-01T07:11:50.072Z,19.30
2018-07-01T07:14:18.736Z,19.30
2018-07-01T07:16:47.296Z,19.40
2018-07-01T07:19:16.121Z,19.50
2018-07-01T07:21:44.726Z,19.70
2018-07-01T07:24:13.347Z,20.20
2018-07-01T07:26:41.893Z,20.60
2018-07-01T07:29:10.612Z,21.10
2018-07-01T07:31:39.224Z,21.50
2018-07-01T07:34:07.852Z,21.60
2018-07-01T07:36:36.536Z,21.70
2018-07-01T07:39:07.399Z,22.00
2018-07-01T07:41:36.058Z,22.40
2018-07-01T07:44:05.017Z,22.80
2018-07-01T07:46:33.771Z,23.20
2018-07-01T07:49:02.470Z,23.40
2018-07-01T07:51:31.119Z,23.50
2018-07-01T07:53:59.725Z,23.70
2018-07-01T07:56:28.381Z,23.90
2018-07-01T07:58:56.957Z,24.20
2018-07-01T08:01:25.580Z,24.40
2018-07-01T08:03:54.157Z,24.70
2018-07-01T08:06:22.756Z,24.90
2018-07-01T08:08:56.684Z,25.00
2018-07-01T08:11:25.274Z,25.10
2018-07-01T08:13:54.051Z,25.30
2018-07-01T08:16:22.714Z,25.40
2018-07-01T08:19:05.052Z,25.40
2018-07-01T08:21:33.831Z,25.60
2018-07-01T08:24:02.427Z,25.70
2018-07-01T08:26:31.001Z,25.90
2018-07-01T08:29:04.944Z,25.90
2018-07-01T08:31:33.576Z,25.90
2018-07-01T08:34:02.153Z,26.00
2018-07-01T08:36:30.778Z,26.00
2018-07-01T08:38:59.687Z,26.20
2018-07-01T08:41:29.118Z,26.20
2018-07-01T08:43:57.698Z,26.20
2018-07-01T08:46:26.251Z,26.30
2018-07-01T08:48:54.888Z,26.30
2018-07-01T08:51:23.447Z,26.30
2018-07-01T08:53:51.985Z,26.30
2018-07-01T08:56:20.497Z,26.40
2018-07-01T08:58:49.170Z,26.60
2018-07-01T09:01:17.678Z,26.70
2018-07-01T09:03:46.242Z,26.70
2018-07-01T09:06:14.837Z,26.70
2018-07-01T09:08:48.481Z,26.60
2018-07-01T09:11:16.945Z,26.80
2018-07-01T09:13:45.531Z,26.70
2018-07-01T09:16:14.122Z,26.80
2018-07-01T09:18:42.826Z,26.90
2018-07-01T09:21:11.408Z,26.80
2018-07-01T09:23:40.149Z,26.80
2018-07-01T09:26:08.722Z,26.90
2018-07-01T09:28:37.642Z,26.90
2018-07-01T09:31:06.269Z,26.90
2018-07-01T09:33:34.854Z,27.00
2018-07-01T09:36:03.574Z,27.10
2018-07-01T09:38:32.138Z,27.10
2018-07-01T09:41:00.810Z,27.20
2018-07-01T09:43:29.401Z,27.30
2018-07-01T09:45:57.988Z,27.30
2018-07-01T09:48:26.618Z,27.30
2018-07-01T09:50:55.194Z,27.30
2018-07-01T09:53:23.734Z,27.10
2018-07-01T09:55:52.413Z,27.10
2018-07-01T09:58:21.250Z,27.30
2018-07-01T10:00:49.790Z,27.40
2018-07-01T10:03:18.358Z,27.40
2018-07-01T10:05:46.934Z,27.40
2018-07-01T10:08:15.525Z,27.60
2018-07-01T10:10:44.147Z,27.60
2018-07-01T10:13:12.776Z,27.80
2018-07-01T10:15:41.482Z,27.90
2018-07-01T10:18:10.174Z,28.10
2018-07-01T10:20:38.871Z,28.20
2018-07-01T10:23:07.462Z,28.20
2018-07-01T10:25:36.124Z,28.30
2018-07-01T10:28:04.688Z,28.40
2018-07-01T10:30:33.298Z,28.40
2018-07-01T10:33:01.952Z,28.60
2018-07-01T10:35:30.555Z,28.70
2018-07-01T10:37:59.251Z,28.80
2018-07-01T10:40:27.832Z,28.80
2018-07-01T10:42:57.173Z,28.90
2018-07-01T10:45:25.773Z,29.00
2018-07-01T10:47:55.208Z,28.90
2018-07-01T10:50:24.035Z,29.00
2018-07-01T10:52:52.618Z,29.10
2018-07-01T10:55:21.265Z,29.20
2018-07-01T10:57:49.838Z,29.20
2018-07-01T11:00:18.682Z,29.30
2018-07-01T11:02:47.222Z,29.30
2018-07-01T11:05:15.832Z,29.30
2018-07-01T11:07:44.393Z,29.30
2018-07-01T11:10:13.077Z,29.40
2018-07-01T11:12:41.710Z,29.50
2018-07-01T11:15:10.323Z,29.50
2018-07-01T11:17:38.936Z,29.40
2018-07-01T11:20:07.699Z,29.30
2018-07-01T11:22:36.420Z,29.40
2018-07-01T11:25:05.084Z,29.70
2018-07-01T11:27:33.714Z,29.90
2018-07-01T11:30:02.305Z,29.80
2018-07-01T11:32:30.905Z,29.80
2018-07-01T11:34:59.499Z,29.90
2018-07-01T11:37:28.043Z,30.00
2018-07-01T11:40:01.918Z,30.00
2018-07-01T11:42:30.547Z,30.00
2018-07-01T11:44:59.079Z,30.00
2018-07-01T11:47:27.655Z,30.10
2018-07-01T11:49:56.407Z,30.20
2018-07-01T11:52:25.008Z,30.30
2018-07-01T11:54:53.653Z,30.40
2018-07-01T11:57:22.328Z,30.40
2018-07-01T11:59:50.892Z,30.40
2018-07-01T12:02:19.495Z,30.40
2018-07-01T12:05:02.954Z,30.40
2018-07-01T12:07:16.714Z,30.50
2018-07-01T12:09:45.278Z,30.60
2018-07-01T12:12:13.940Z,30.80
2018-07-01T12:14:42.634Z,31.00
2018-07-01T12:17:11.234Z,31.00
2018-07-01T12:19:39.959Z,31.20
2018-07-01T12:22:08.575Z,31.10
2018-07-01T12:24:37.172Z,31.10
2018-07-01T12:27:05.820Z,31.00
2018-07-01T12:29:34.818Z,30.90
2018-07-01T12:32:03.504Z,30.80
2018-07-01T12:34:32.065Z,30.80
2018-07-01T12:37:00.739Z,30.80
2018-07-01T12:39:29.391Z,30.80
2018-07-01T12:41:58.073Z,30.70
2018-07-01T12:44:26.650Z,30.60
2018-07-01T12:46:55.262Z,30.70
2018-07-01T12:49:23.913Z,30.70
2018-07-01T12:51:52.507Z,30.70
2018-07-01T12:54:21.139Z,30.80
2018-07-01T12:56:49.753Z,30.90
2018-07-01T12:59:18.407Z,30.80
2018-07-01T13:01:47.035Z,30.80
2018-07-01T13:04:15.653Z,30.70
2018-07-01T13:06:44.281Z,30.80
2018-07-01T13:09:13.723Z,30.90
2018-07-01T13:11:42.906Z,31.00
2018-07-01T13:14:11.489Z,31.10
2018-07-01T13:16:40.130Z,31.10
2018-07-01T13:19:09.035Z,31.10
2018-07-01T13:21:37.583Z,31.10
2018-07-01T13:24:06.190Z,31.10
2018-07-01T13:26:34.742Z,31.00
2018-07-01T13:29:03.648Z,31.10
2018-07-01T13:31:32.210Z,31.30
2018-07-01T13:34:00.810Z,31.30
2018-07-01T13:36:29.473Z,31.30
2018-07-01T13:38:58.278Z,31.10
2018-07-01T13:41:26.879Z,31.10
2018-07-01T13:43:55.748Z,31.10
2018-07-01T13:46:24.289Z,31.10
2018-07-01T13:48:52.721Z,31.10
2018-07-01T13:51:21.363Z,31.10
2018-07-01T13:53:49.988Z,31.20
2018-07-01T13:56:18.648Z,31.30
2018-07-01T13:58:47.577Z,31.30
2018-07-01T14:01:16.237Z,31.40
2018-07-01T14:03:44.979Z,31.50
2018-07-01T14:06:13.660Z,31.60
2018-07-01T14:08:42.453Z,31.90
2018-07-01T14:11:11.027Z,31.80
2018-07-01T14:13:39.596Z,31.90
2018-07-01T14:16:08.161Z,31.80
2018-07-01T14:18:36.863Z,31.80
2018-07-01T14:21:05.579Z,31.80
2018-07-01T14:23:34.458Z,31.70
2018-07-01T14:26:03.095Z,31.60
2018-07-01T14:28:31.671Z,31.30
2018-07-01T14:31:00.506Z,31.20
2018-07-01T14:33:29.125Z,31.50
2018-07-01T14:35:57.720Z,31.50
2018-07-01T14:38:26.304Z,31.40
2018-07-01T14:40:54.862Z,31.40
2018-07-01T14:43:23.498Z,31.40
2018-07-01T14:45:52.179Z,31.50
2018-07-01T14:48:20.753Z,31.50
2018-07-01T14:50:49.335Z,31.60
2018-07-01T14:53:18.034Z,31.40
2018-07-01T14:55:46.746Z,31.30
2018-07-01T14:58:15.401Z,31.30
2018-07-01T15:00:44.205Z,31.40
2018-07-01T15:03:12.813Z,31.40
2018-07-01T15:05:41.364Z,31.50
2018-07-01T15:08:10.019Z,31.40
2018-07-01T15:10:38.645Z,31.40
2018-07-01T15:13:07.184Z,31.40
2018-07-01T15:15:35.796Z,31.40
2018-07-01T15:18:04.499Z,31.50
2018-07-01T15:20:33.330Z,31.70
2018-07-01T15:23:01.950Z,31.60
2018-07-01T15:25:30.607Z,31.50
2018-07-01T15:27:59.216Z,31.40
2018-07-01T15:30:27.863Z,31.50
2018-07-01T15:32:56.511Z,31.60
2018-07-01T15:35:25.130Z,31.50
2018-07-01T15:37:53.733Z,31.30
2018-07-01T15:40:22.335Z,31.10
2018-07-01T15:42:51.002Z,31.00
2018-07-01T15:45:19.619Z,30.80
2018-07-01T15:47:48.358Z,30.70
2018-07-01T15:50:17.042Z,30.60
2018-07-01T15:52:45.664Z,30.50
2018-07-01T15:55:15.028Z,30.70
2018-07-01T15:57:43.647Z,30.80
2018-07-01T16:00:12.438Z,30.80
2018-07-01T16:02:41.085Z,30.80
2018-07-01T16:05:09.683Z,30.70
2018-07-01T16:07:38.291Z,30.70
2018-07-01T16:10:11.967Z,30.60
2018-07-01T16:12:40.585Z,30.50
2018-07-01T16:15:09.202Z,30.40
2018-07-01T16:17:37.783Z,30.30
2018-07-01T16:20:06.405Z,30.30
2018-07-01T16:22:34.989Z,30.40
2018-07-01T16:25:08.822Z,30.50
2018-07-01T16:27:40.791Z,30.50
2018-07-01T16:30:14.681Z,30.30
2018-07-01T16:32:43.294Z,30.20
2018-07-01T16:35:11.952Z,30.20
2018-07-01T16:37:40.595Z,30.00
2018-07-01T16:40:09.198Z,30.00
2018-07-01T16:42:37.734Z,30.00
2018-07-01T16:45:06.437Z,29.90
2018-07-01T16:47:35.050Z,29.80
2018-07-01T16:50:03.674Z,29.80
2018-07-01T16:52:32.434Z,29.80
2018-07-01T16:55:01.006Z,29.70
2018-07-01T16:57:29.571Z,29.70
2018-07-01T16:59:58.327Z,29.80
2018-07-01T17:02:26.970Z,29.70
2018-07-01T17:04:55.508Z,29.70
2018-07-01T17:07:24.120Z,29.70
2018-07-01T17:09:52.754Z,29.70
2018-07-01T17:12:21.402Z,29.60
2018-07-01T17:14:50.110Z,29.60
2018-07-01T17:17:18.762Z,29.60
2018-07-01T17:19:47.487Z,29.50
2018-07-01T17:22:16.104Z,29.50
2018-07-01T17:24:45.056Z,29.50
2018-07-01T17:27:13.651Z,29.50
2018-07-01T17:29:42.185Z,29.50
2018-07-01T17:32:15.973Z,29.50
2018-07-01T17:34:45.070Z,29.50
2018-07-01T17:37:14.094Z,29.50
2018-07-01T17:39:42.929Z,29.40
2018-07-01T17:42:11.485Z,29.30
2018-07-01T17:44:40.098Z,29.20
2018-07-01T17:47:08.627Z,29.10
2018-07-01T17:49:37.251Z,28.90
2018-07-01T17:52:05.898Z,28.90
2018-07-01T17:54:34.504Z,28.80
2018-07-01T17:57:03.083Z,28.80
2018-07-01T17:59:37.082Z,28.80
2018-07-01T18:02:05.721Z,28.80
2018-07-01T18:04:34.260Z,28.80
2018-07-01T18:07:02.872Z,28.70
2018-07-01T18:09:31.491Z,28.60
2018-07-01T18:12:00.106Z,28.50
2018-07-01T18:14:28.695Z,28.40
2018-07-01T18:16:57.289Z,28.40
2018-07-01T18:19:25.853Z,28.30
2018-07-01T18:22:14.825Z,28.20
2018-07-01T18:24:48.923Z,28.10
2018-07-01T18:26:51.773Z,28.00
2018-07-01T18:29:20.709Z,28.00
2018-07-01T18:31:49.084Z,28.00
2018-07-01T18:34:17.686Z,27.90
2018-07-01T18:36:46.371Z,27.80
2018-07-01T18:39:15.253Z,27.70
2018-07-01T18:41:43.912Z,27.50
2018-07-01T18:44:12.526Z,27.40
2018-07-01T18:46:41.326Z,27.40
2018-07-01T18:49:10.018Z,27.40
2018-07-01T18:51:38.642Z,27.40
2018-07-01T18:54:07.244Z,27.30
2018-07-01T18:56:35.937Z,27.30
2018-07-01T18:59:04.612Z,27.40
2018-07-01T19:01:33.146Z,27.30
2018-07-01T19:04:01.725Z,27.30
2018-07-01T19:06:30.633Z,27.20
2018-07-01T19:08:59.266Z,27.10
2018-07-01T19:11:27.840Z,27.00
2018-07-01T19:13:56.462Z,26.90
2018-07-01T19:16:25.014Z,26.70
2018-07-01T19:18:53.976Z,26.60
2018-07-01T19:21:22.601Z,26.40
2018-07-01T19:23:51.218Z,26.40
2018-07-01T19:26:19.848Z,26.30
2018-07-01T19:28:48.666Z,26.30
2018-07-01T19:31:17.282Z,26.20
2018-07-01T19:33:45.865Z,26.20
2018-07-01T19:36:14.515Z,26.20
2018-07-01T19:38:48.285Z,26.10
2018-07-01T19:41:16.942Z,26.00
2018-07-01T19:43:45.488Z,25.90
2018-07-01T19:46:14.118Z,25.90
2018-07-01T19:48:42.669Z,25.90
2018-07-01T19:51:11.249Z,25.90
2018-07-01T19:53:39.927Z,25.80
2018-07-01T19:56:08.538Z,25.80
2018-07-01T19:58:37.134Z,25.70
2018-07-01T20:01:05.777Z,25.80
2018-07-01T20:03:34.434Z,25.70
2018-07-01T20:06:03.042Z,25.60
2018-07-01T20:08:31.792Z,25.50
2018-07-01T20:11:00.334Z,25.50
2018-07-01T20:13:28.906Z,25.40
2018-07-01T20:15:57.545Z,25.40
2018-07-01T20:18:26.186Z,25.40
2018-07-01T20:20:54.860Z,25.40
2018-07-01T20:23:23.511Z,25.30
2018-07-01T20:25:52.131Z,25.30
2018-07-01T20:28:20.725Z,25.20
2018-07-01T20:30:49.313Z,25.10
2018-07-01T20:33:17.898Z,25.00
2018-07-01T20:35:46.430Z,24.80
2018-07-01T20:38:15.726Z,24.70
2018-07-01T20:40:44.364Z,24.60
2018-07-01T20:43:13.000Z,24.60
2018-07-01T20:45:41.667Z,24.50
2018-07-01T20:48:10.271Z,24.50
2018-07-01T20:50:39.072Z,24.60
2018-07-01T20:53:07.669Z,24.60
2018-07-01T20:55:36.238Z,24.60
2018-07-01T20:58:04.898Z,24.60
2018-07-01T21:00:33.599Z,24.60
2018-07-01T21:03:02.171Z,24.70
2018-07-01T21:05:30.734Z,24.60
2018-07-01T21:07:59.292Z,24.60
2018-07-01T21:10:28.214Z,24.60
2018-07-01T21:12:56.987Z,24.60
2018-07-01T21:15:25.544Z,24.60
2018-07-01T21:17:54.127Z,24.50
2018-07-01T21:20:22.921Z,24.50
2018-07-01T21:22:51.507Z,24.50
2018-07-01T21:25:20.123Z,24.50
2018-07-01T21:27:48.665Z,24.50
2018-07-01T21:30:17.287Z,24.40
2018-07-01T21:32:45.921Z,24.40
2018-07-01T21:35:14.518Z,24.40
2018-07-01T21:37:43.141Z,24.30
2018-07-01T21:40:11.735Z,24.30
2018-07-01T21:42:40.275Z,24.30
2018-07-01T21:45:09.235Z,24.30
2018-07-01T21:47:37.991Z,24.30
2018-07-01T21:50:07.121Z,24.30
2018-07-01T21:52:35.823Z,24.20
2018-07-01T21:55:04.603Z,24.20
2018-07-01T21:57:33.204Z,24.20
2018-07-01T22:00:02.087Z,24.10
2018-07-01T22:02:30.657Z,24.10
2018-07-01T22:04:59.307Z,24.00
2018-07-01T22:07:27.952Z,23.80
2018-07-01T22:09:56.923Z,23.70
2018-07-01T22:12:36.387Z,23.70
2018-07-01T22:15:30.393Z,23.60
2018-07-01T22:17:59.033Z,23.60
2018-07-01T22:20:27.876Z,23.70
2018-07-01T22:22:56.487Z,23.70
2018-07-01T22:25:25.107Z,23.70
2018-07-01T22:27:53.659Z,23.60
2018-07-01T22:30:22.323Z,23.60
2018-07-01T22:32:50.943Z,23.50
2018-07-01T22:35:19.569Z,23.50
2018-07-01T22:37:48.306Z,23.40
2018-07-01T22:40:17.071Z,23.40
2018-07-01T22:42:45.626Z,23.40
2018-07-01T22:45:14.275Z,23.40
2018-07-01T22:47:42.936Z,23.40
2018-07-01T22:50:11.719Z,23.40
2018-07-01T22:52:40.362Z,23.30
2018-07-01T22:55:08.943Z,23.20
2018-07-01T22:57:37.539Z,23.20
2018-07-01T23:00:06.184Z,23.10
2018-07-01T23:03:25.787Z,23.00
2018-07-01T23:05:54.386Z,22.80
2018-07-01T23:08:22.969Z,22.70
2018-07-01T23:10:51.546Z,22.70
2018-07-01T23:13:20.122Z,22.70
2018-07-01T23:15:48.727Z,22.60
2018-07-01T23:18:17.313Z,22.60
2018-07-01T23:20:45.906Z,22.60
2018-07-01T23:23:14.529Z,22.60
2018-07-01T23:25:43.241Z,22.60
2018-07-01T23:28:11.837Z,22.70
2018-07-01T23:30:40.441Z,22.60
2018-07-01T23:33:09.059Z,22.50
2018-07-01T23:35:37.643Z,22.40
2018-07-01T23:38:06.266Z,22.40
2018-07-01T23:40:40.169Z,22.30
2018-07-01T23:43:08.798Z,22.20
2018-07-01T23:45:37.410Z,22.10
2018-07-01T23:48:06.454Z,22.20
2018-07-01T23:50:35.157Z,22.10
2018-07-01T23:53:03.797Z,21.90
2018-07-01T23:55:32.483Z,21.90
2018-07-01T23:58:01.172Z,21.90
